createdAt,value
2023-02-01T00:01:09.450Z,20.50
2023-02-01T00:03:38.178Z,20.30
2023-02-01T00:06:06.668Z,20.50
2023-02-01T00:08:36.293Z,20.40
2023-02-01T00:11:09.890Z,19.90
2023-02-01T00:13:41.363Z,20.60
2023-02-01T00:16:13.587Z,20.40
2023-02-01T00:18:42.110Z,18.70
2023-02-01T00:21:14.632Z,19.80
2023-02-01T00:23:44.832Z,20.00
2023-02-01T00:26:37.710Z,19.80
2023-02-01T00:29:08.031Z,20.30
2023-02-01T00:31:36.446Z,20.20
2023-02-01T00:34:04.846Z,21.40
2023-02-01T00:36:34.427Z,20.20
2023-02-01T00:39:02.802Z,19.90
2023-02-01T00:41:31.323Z,21.00
2023-02-01T00:44:00.009Z,20.00
2023-02-01T00:46:28.574Z,20.00
2023-02-01T00:48:57.124Z,19.20
2023-02-01T00:51:27.464Z,20.00
2023-02-01T00:53:57.274Z,18.80
2023-02-01T00:56:28.689Z,19.70
2023-02-01T00:58:57.258Z,20.00
2023-02-01T01:01:26.944Z,19.20
2023-02-01T04:14:25.794Z,20.60
2023-02-01T04:16:56.642Z,21.60
2023-02-01T04:19:26.037Z,21.90
2023-02-01T04:21:53.141Z,22.40
2023-02-01T04:24:20.993Z,22.70
2023-02-01T04:26:47.913Z,21.40
2023-02-01T04:29:17.765Z,20.80
2023-02-01T04:31:44.936Z,21.10
2023-02-01T04:34:11.930Z,19.80
2023-02-01T04:36:38.715Z,20.40
2023-02-01T04:39:06.119Z,19.30
2023-02-01T04:41:34.203Z,19.50
2023-02-01T04:44:01.357Z,19.40
2023-02-01T04:46:28.368Z,19.00
2023-02-01T04:48:55.491Z,18.70
2023-02-01T04:51:22.702Z,17.30
2023-02-01T04:53:49.626Z,21.10
2023-02-01T04:56:16.611Z,19.80
2023-02-01T04:58:44.132Z,20.20
2023-02-01T05:01:11.048Z,18.10
2023-02-01T05:03:37.952Z,18.70
2023-02-01T05:06:05.397Z,18.80
2023-02-01T05:08:33.005Z,16.90
2023-02-01T05:11:03.076Z,18.50
2023-02-01T05:13:49.088Z,19.40
2023-02-01T05:16:16.380Z,18.10
2023-02-01T05:18:43.296Z,20.10
2023-02-01T05:21:10.299Z,18.90
2023-02-01T05:23:57.135Z,18.00
2023-02-01T05:26:24.816Z,18.30
2023-02-01T05:28:51.675Z,20.20
2023-02-01T05:31:18.802Z,20.50
2023-02-01T05:33:46.041Z,19.50
2023-02-01T05:36:13.044Z,18.60
2023-02-01T05:38:43.405Z,18.20
2023-02-01T05:41:10.433Z,18.10
2023-02-01T05:43:37.276Z,18.10
2023-02-01T05:46:04.553Z,19.10
2023-02-01T05:48:31.620Z,15.20
2023-02-01T05:50:58.837Z,14.30
2023-02-01T05:53:25.681Z,13.30
2023-02-01T05:55:55.763Z,13.30
2023-02-01T05:58:22.918Z,12.10
2023-02-01T06:00:49.990Z,13.30
2023-02-01T06:03:16.913Z,13.40
2023-02-01T06:05:47.211Z,13.90
2023-02-01T06:08:14.995Z,14.60
2023-02-01T06:10:42.089Z,14.20
2023-02-01T06:13:10.297Z,14.60
2023-02-01T06:15:38.018Z,14.60
2023-02-01T06:18:08.717Z,18.30
2023-02-01T06:20:35.885Z,19.70
2023-02-01T06:23:05.533Z,17.30
2023-02-01T06:33:17.488Z,17.30
2023-02-01T06:35:50.019Z,15.90
2023-02-01T06:38:18.659Z,16.00
2023-02-01T06:40:47.215Z,16.00
2023-02-01T06:43:17.376Z,16.20
2023-02-01T06:45:45.953Z,15.60
2023-02-01T06:48:14.218Z,17.40
2023-02-01T06:50:44.722Z,16.60
2023-02-01T06:53:15.296Z,17.80
2023-02-01T06:56:02.190Z,17.00
2023-02-01T06:58:31.934Z,16.30
2023-02-01T07:01:06.858Z,14.50
2023-02-01T07:03:35.800Z,15.30
2023-02-01T07:06:05.602Z,15.30
2023-02-01T07:08:38.349Z,13.60
2023-02-01T07:11:12.518Z,12.80
2023-02-01T07:13:40.932Z,11.60
2023-02-01T07:16:14.122Z,11.10
2023-02-01T07:18:42.549Z,11.40
2023-02-01T07:21:10.975Z,11.60
2023-02-01T07:23:39.488Z,12.00
2023-02-01T07:26:12.148Z,12.00
2023-02-01T07:28:40.729Z,11.80
2023-02-01T07:31:27.625Z,11.20
2023-02-01T07:33:57.607Z,11.50
2023-02-01T07:36:26.135Z,13.20
2023-02-01T07:38:56.603Z,13.40
2023-02-01T07:41:25.206Z,13.70
2023-02-01T07:43:54.659Z,14.50
2023-02-01T07:46:22.965Z,14.30
2023-02-01T07:48:51.689Z,12.90
2023-02-01T07:51:19.974Z,15.50
2023-02-01T07:53:48.199Z,15.80
2023-02-01T07:56:18.575Z,12.60
2023-02-01T07:58:57.163Z,12.20
2023-02-01T08:01:26.718Z,12.70
2023-02-01T08:03:57.070Z,11.50
2023-02-01T08:06:27.832Z,10.50
2023-02-01T08:08:56.539Z,10.60
2023-02-01T08:11:25.596Z,10.80
2023-02-01T08:13:54.595Z,10.90
2023-02-01T08:16:24.664Z,10.00
2023-02-01T08:18:53.457Z,11.20
2023-02-01T08:21:26.697Z,11.60
2023-02-01T08:23:55.167Z,11.50
2023-02-01T08:26:26.307Z,10.90
2023-02-01T08:29:00.827Z,10.90
2023-02-01T08:31:29.821Z,10.60
2023-02-01T08:34:00.343Z,11.10
2023-02-01T08:36:29.880Z,11.60
2023-02-01T08:38:58.496Z,14.60
2023-02-01T08:41:28.704Z,11.20
2023-02-01T08:43:58.099Z,12.90
2023-02-01T08:46:26.542Z,11.40
2023-02-01T08:48:54.897Z,9.10
2023-02-01T08:51:23.614Z,8.90
2023-02-01T08:53:52.281Z,9.20
2023-02-01T08:56:23.097Z,9.60
2023-02-01T08:58:51.328Z,10.10
2023-02-01T09:01:19.659Z,11.00
2023-02-01T09:03:48.299Z,10.90
2023-02-01T09:06:17.025Z,10.80
2023-02-01T09:08:52.373Z,10.70
2023-02-01T09:11:21.609Z,10.50
2023-02-01T09:13:50.996Z,11.10
2023-02-01T09:16:27.154Z,11.40
2023-02-01T09:19:22.186Z,11.00
2023-02-01T09:21:44.723Z,10.70
2023-02-01T09:24:13.458Z,11.70
2023-02-01T09:26:41.946Z,10.00
2023-02-01T09:29:13.007Z,11.70
2023-02-01T09:31:46.663Z,11.00
2023-02-01T09:34:15.517Z,11.20
2023-02-01T09:36:44.644Z,12.90
2023-02-01T09:39:13.001Z,13.50
2023-02-01T09:42:10.712Z,11.50
2023-02-01T09:44:51.078Z,11.90
2023-02-01T09:47:21.766Z,11.30
2023-02-01T09:49:54.088Z,10.90
2023-02-01T09:52:28.209Z,11.50
2023-02-01T09:55:03.912Z,13.50
2023-02-01T09:57:43.005Z,10.70
2023-02-01T10:00:35.061Z,10.40
2023-02-01T10:03:07.240Z,10.40
2023-02-01T10:06:02.713Z,11.50
2023-02-01T10:08:34.865Z,11.30
2023-02-01T13:54:30.173Z,22.60
2023-02-01T13:56:59.639Z,21.80
2023-02-01T13:59:41.944Z,19.40
2023-02-01T14:02:43.084Z,19.10
2023-02-01T14:05:34.917Z,17.70
2023-02-01T14:08:08.355Z,20.70
2023-02-01T14:10:58.718Z,18.60
2023-02-01T14:13:38.517Z,20.30
2023-02-01T14:16:06.339Z,18.40
2023-02-01T14:18:34.150Z,17.50
2023-02-01T14:21:24.321Z,16.00
2023-02-01T14:23:54.651Z,16.10
2023-02-01T14:26:25.627Z,16.40
2023-02-01T14:29:02.171Z,16.50
2023-02-01T14:31:35.234Z,17.40
2023-02-01T14:34:16.819Z,17.30
2023-02-01T14:36:59.682Z,16.90
2023-02-01T14:39:54.662Z,16.40
2023-02-01T14:42:43.435Z,17.70
2023-02-01T14:45:23.290Z,20.20
2023-02-01T14:47:51.965Z,26.20
2023-02-01T14:50:32.917Z,28.20
2023-02-01T14:53:19.662Z,21.20
2023-02-01T14:56:07.788Z,20.10
2023-02-01T14:58:35.332Z,20.30
2023-02-01T15:01:04.248Z,23.20
2023-02-01T15:03:43.644Z,21.00
2023-02-01T15:06:36.662Z,20.50
2023-02-01T15:09:08.768Z,21.10
2023-02-01T15:11:56.908Z,24.00
2023-02-01T15:14:27.209Z,26.60
2023-02-01T15:16:54.318Z,25.30
2023-02-01T15:19:26.035Z,25.50
2023-02-01T15:21:55.165Z,25.00
2023-02-01T15:24:24.000Z,25.70
2023-02-01T15:26:52.238Z,26.80
2023-02-01T15:29:20.919Z,27.70
2023-02-01T15:31:59.262Z,23.90
2023-02-01T15:34:51.052Z,22.60
2023-02-01T15:37:19.159Z,21.10
2023-02-01T15:40:13.821Z,22.40
2023-02-01T15:42:50.812Z,22.80
2023-02-01T15:45:23.504Z,22.30
2023-02-01T15:47:51.752Z,21.80
2023-02-01T15:50:21.971Z,21.80
2023-02-01T15:52:51.166Z,22.40
2023-02-01T15:55:23.077Z,21.20
2023-02-01T15:57:52.559Z,21.90
2023-02-01T16:00:28.125Z,20.60
2023-02-01T16:03:00.150Z,21.20
2023-02-01T16:05:33.822Z,22.60
2023-02-01T16:08:12.565Z,22.50
2023-02-01T16:10:42.234Z,22.10
2023-02-01T16:13:09.625Z,22.60
2023-02-01T16:15:36.679Z,21.60
2023-02-01T16:18:08.330Z,21.60
2023-02-01T16:20:39.820Z,22.70
2023-02-01T16:23:08.868Z,24.80
2023-02-01T16:25:36.330Z,26.30
2023-02-01T16:28:05.914Z,23.10
2023-02-01T16:30:34.751Z,24.50
2023-02-01T16:33:05.794Z,23.40
2023-02-01T16:35:37.823Z,22.90
2023-02-01T16:38:12.804Z,21.80
2023-02-01T16:40:40.625Z,21.80
2023-02-01T16:43:38.905Z,22.70
2023-02-01T16:46:09.590Z,23.00
2023-02-01T16:48:39.419Z,24.00
2023-02-01T16:51:11.514Z,22.40
2023-02-01T16:53:53.079Z,21.50
2023-02-01T16:56:23.941Z,22.40
2023-02-01T16:58:54.753Z,19.60
2023-02-01T17:01:21.841Z,19.00
2023-02-01T17:03:50.452Z,21.80
2023-02-01T17:06:21.173Z,24.00
2023-02-01T17:08:54.976Z,21.40
2023-02-01T17:11:22.322Z,22.20
2023-02-01T17:13:49.918Z,22.00
2023-02-01T17:16:28.780Z,20.90
2023-02-01T17:19:07.694Z,19.80
2023-02-01T17:21:47.303Z,21.20
2023-02-01T17:24:15.725Z,20.70
2023-02-01T17:26:43.971Z,21.00
2023-02-01T17:29:11.467Z,21.90
2023-02-01T17:31:41.296Z,19.10
2023-02-01T17:34:10.275Z,20.00
2023-02-01T17:36:39.987Z,19.40
2023-02-01T17:39:07.383Z,20.40
2023-02-01T17:41:36.168Z,19.00
2023-02-01T17:44:04.591Z,18.10
2023-02-01T17:46:32.759Z,17.70
2023-02-01T17:49:06.175Z,18.50
2023-02-01T17:51:36.171Z,18.90
2023-02-01T17:54:05.804Z,19.10
2023-02-01T17:56:34.101Z,18.30
2023-02-01T17:59:02.355Z,18.40
2023-02-01T18:01:30.204Z,17.50
2023-02-01T18:03:57.303Z,18.30
2023-02-01T18:06:30.795Z,18.30
2023-02-01T18:08:58.647Z,18.00
2023-02-01T18:11:25.949Z,18.40
2023-02-01T18:13:53.725Z,18.30
2023-02-01T18:16:26.282Z,19.60
2023-02-01T18:18:53.779Z,19.80
2023-02-01T18:21:22.086Z,20.10
2023-02-01T18:23:49.665Z,24.60
2023-02-01T18:26:17.805Z,21.10
2023-02-01T18:28:45.193Z,22.70
2023-02-01T18:31:26.613Z,20.20
2023-02-01T18:33:54.901Z,22.40
2023-02-01T18:36:22.214Z,18.80
2023-02-01T18:38:50.597Z,20.00
2023-02-01T18:41:22.648Z,19.60
2023-02-01T18:43:50.641Z,20.70
2023-02-01T18:46:18.919Z,20.80
2023-02-01T18:48:45.965Z,20.70
2023-02-01T18:51:19.637Z,20.90
2023-02-01T18:53:48.941Z,18.00
2023-02-01T18:56:19.618Z,19.30
2023-02-01T18:58:49.820Z,19.40
2023-02-01T19:01:19.399Z,19.20
2023-02-01T19:03:55.411Z,19.50
2023-02-01T19:06:35.926Z,18.60
2023-02-01T22:43:35.269Z,34.10
2023-02-01T22:46:04.413Z,27.20
2023-02-01T22:48:37.611Z,26.30
2023-02-01T22:51:05.852Z,25.50
2023-02-01T22:53:33.374Z,23.80
2023-02-01T22:56:05.510Z,23.80
2023-02-01T22:58:35.415Z,22.80
2023-02-01T23:01:12.747Z,23.80
2023-02-01T23:03:44.600Z,22.40
2023-02-01T23:06:13.618Z,22.10
2023-02-01T23:08:40.503Z,21.90
2023-02-01T23:11:08.904Z,20.70
2023-02-01T23:13:36.333Z,21.20
2023-02-01T23:16:07.999Z,20.60
2023-02-01T23:18:35.201Z,21.10
2023-02-01T23:21:06.689Z,19.80
2023-02-01T23:23:33.531Z,19.50
2023-02-01T23:26:00.673Z,20.30
2023-02-01T23:28:27.886Z,19.60
2023-02-01T23:30:55.178Z,19.40
2023-02-01T23:33:23.494Z,19.40
2023-02-01T23:35:58.495Z,19.50
2023-02-01T23:38:25.851Z,19.10
2023-02-01T23:41:03.838Z,20.20
2023-02-01T23:43:49.826Z,19.00
2023-02-01T23:46:16.843Z,19.10
2023-02-01T23:48:45.168Z,19.20
2023-02-01T23:51:12.376Z,18.50
2023-02-01T23:53:39.575Z,19.50
2023-02-01T23:56:06.758Z,19.00
2023-02-01T23:58:34.419Z,18.40
